MMMZ

General Rafael Buelna International Airport

Mazatlán, Mexico
TAF MMMZ 251113Z 2512/2618 020005KT P6SM SCT015CB BKN080 TX33/2522Z TN25/2512Z TEMPO 2512/2514 5SM TSRA FM251600 23010KT P6SM SCT020 SCT250 FM260300 03005KT P6SM VC TS SCT020 BKN080 FM261600 23010KT P6SM SCT020 SCT250
Issued Valid From Valid To
Sep-25 @ 11:13 UTC
(6 hours ago)
Sep-25 @ 12:00 UTC
(5 hours ago)
Sep-26 @ 18:00 UTC
(-1 days ago)
Expired Click to View Sep-25 @ 12:00 to Sep-25 @ 16:00
TAF MMMZ 251113Z 2512/2618 020005KT P6SM SCT015CB BKN080 TX33/2522Z TN25/2512Z
Wind Visibility Clouds
20° at 5 knots Greater than 6 miles
  • Scattered at 1,500' AGL
  • Broken at 8,000' AGL
Expired Click to View Sep-25 @ 12:00 to Sep-25 @ 14:00
TEMPO 2512/2514 5SM TSRA
Visibility Conditions
5 miles
  • Thunderstorm
  • Rain
From Sep-25 @ 16:00 to Sep-26 @ 03:00
FM251600 23010KT P6SM SCT020 SCT250
Wind Visibility Clouds
230° at 10 knots Greater than 6 miles
  • Scattered at 2,000' AGL
  • Scattered at 25,000' AGL
From Sep-26 @ 03:00 to Sep-26 @ 16:00
FM260300 03005KT P6SM VC TS SCT020 BKN080
Wind Visibility Clouds Conditions
30° at 5 knots Greater than 6 miles
  • Scattered at 2,000' AGL
  • Broken at 8,000' AGL
  • Thunderstorm
From Sep-26 @ 16:00 to Sep-26 @ 18:00
FM261600 23010KT P6SM SCT020 SCT250
Wind Visibility Clouds
230° at 10 knots Greater than 6 miles
  • Scattered at 2,000' AGL
  • Scattered at 25,000' AGL
TAF MMMZ 251113Z 2512/2618 020005KT P6SM SCT015CB BKN080 TX33/2522Z TN25/2512Z TEMPO 2512/2514 5SM TSRA FM251600 23010KT P6SM SCT020 SCT250 FM260300 03005KT P6SM VC TS SCT020 BKN080 FM261600 23010KT P6SM SCT020 SCT250
Issued Sep-25 @ 11:13 UTC
(6 hours ago)
Valid From Sep-25 @ 12:00 UTC
(5 hours ago)
Valid To Sep-26 @ 18:00 UTC
(-1 days ago)
Sep-25 @ 12:00 - Sep-25 @ 16:00
Wind Visibility
20° at 5 knots Greater than 6 miles
Clouds
  • Scattered at 1,500' AGL
  • Broken at 8,000' AGL
Sep-25 @ 12:00 - Sep-25 @ 14:00
Conditions
  • Thunderstorm
  • Rain
From Sep-25 @ 16:00 - Sep-26 @ 03:00
Wind Visibility
230° at 10 knots Greater than 6 miles
Clouds
  • Scattered at 2,000' AGL
  • Scattered at 25,000' AGL
From Sep-26 @ 03:00 - Sep-26 @ 16:00
Wind Visibility
30° at 5 knots Greater than 6 miles
Clouds
  • Scattered at 2,000' AGL
  • Broken at 8,000' AGL
Conditions
  • Thunderstorm
From Sep-26 @ 16:00 - Sep-26 @ 18:00
Wind Visibility
230° at 10 knots Greater than 6 miles
Clouds
  • Scattered at 2,000' AGL
  • Scattered at 25,000' AGL